Burke Lakefront Airport
KBKL : now visible

Airfield :











YOU CAN JOIN US ON...

 
LOGIN :

Register | Disclaimer

   EN    FR    IT 

 









Legend :    VFR   Marginal VFR   IFR   Intensive IFR   Very Intensive IFR
Visi :
Ceiling :
>= 8 km
>= 3000ft
5 to 8 km
1000 to 3000 ft
1500m to 5 km
500 to 1000 ft
800 to 1500m
200 to 500 ft
< 800m
< 200 ft
Symbols :   Thunderstorms  Fog  Heavy snow  Heavy precipitations  Wind > 20 kt






- Airport Elevation : 583 ft
- IATA code : BKL


KBKL - Burke Lakefront

CURRENT METAR :
  • 241153Z 32013KT 10SM OVC029 09/03 A3015 RMK AO2 SLP210 60001 70059 T00890028 10117 20089 51021

EXPIRED METARs :
  • 241132Z 34013G19KT 10SM BKN028 OVC035 09/03 A3015 RMK AO2 T00890028
  • 241053Z 32015KT 10SM BKN030 OVC036 09/03 A3014 RMK AO2 SLP207 T00940028
  • 240953Z AUTO 33016KT 10SM BKN031 09/03 A3012 RMK AO2 PK WND 31027/0859 SLP197 T00940028
  • 240945Z AUTO 33018KT 10SM BKN029 BKN038 09/03 A3011 RMK AO2 PK WND 31027/0859 T00940033
  • 240915Z AUTO 33019G25KT 10SM SCT024 BKN035 10/04 A3010 RMK AO2 PK WND 31027/0859 T01000039

TAF N/A
KZOB FIR / North America



MET'MAP, your aeronautical weather chart ! - Copyright ORBIFLY December 2007 - Disclaimer

ORBIFLY MET'MAP TEAM :

Programming & Development : Alexandra Zaïnal
Concept & original design : Baudouin d'Aumeries
Assistance for programming : Marc-Olivier Méhu
Technical & hardware support : Manuel Goepfert

Contact : metmap@orbifly.com




SOURCES & CREDITS :

   NOAA       Earth
Advisory